sensor_id;sensor_type;location;lat;lon;timestamp;pressure;altitude;pressure_sealevel;temperature;humidity
41250;BME280;26984;59.928;30.306;2023-09-19T00:00:26;101563.50;;;9.46;100.00
41250;BME280;26984;59.928;30.306;2023-09-19T00:02:55;101569.25;;;9.43;100.00
41250;BME280;26984;59.928;30.306;2023-09-19T00:05:25;101571.25;;;9.41;100.00
41250;BME280;26984;59.928;30.306;2023-09-19T00:07:54;101570.06;;;9.44;100.00
41250;BME280;26984;59.928;30.306;2023-09-19T00:10:22;101563.56;;;9.38;100.00
41250;BME280;26984;59.928;30.306;2023-09-19T00:12:50;101556.44;;;9.30;100.00
41250;BME280;26984;59.928;30.306;2023-09-19T00:15:19;101564.50;;;9.30;100.00
41250;BME280;26984;59.928;30.306;2023-09-19T00:17:47;101560.97;;;9.30;100.00
41250;BME280;26984;59.928;30.306;2023-09-19T00:20:16;101554.41;;;9.32;100.00
41250;BME280;26984;59.928;30.306;2023-09-19T00:22:43;101561.34;;;9.27;100.00
41250;BME280;26984;59.928;30.306;2023-09-19T00:25:11;101558.38;;;9.22;100.00
41250;BME280;26984;59.928;30.306;2023-09-19T00:27:41;101559.03;;;9.24;100.00
41250;BME280;26984;59.928;30.306;2023-09-19T00:30:11;101554.47;;;9.24;100.00
41250;BME280;26984;59.928;30.306;2023-09-19T00:32:41;101550.78;;;9.25;100.00
41250;BME280;26984;59.928;30.306;2023-09-19T00:35:10;101550.22;;;9.15;100.00
41250;BME280;26984;59.928;30.306;2023-09-19T00:37:39;101541.50;;;9.13;100.00
41250;BME280;26984;59.928;30.306;2023-09-19T00:40:08;101545.84;;;9.14;100.00
41250;BME280;26984;59.928;30.306;2023-09-19T00:42:38;101543.81;;;9.16;100.00
41250;BME280;26984;59.928;30.306;2023-09-19T00:45:06;101547.22;;;9.10;100.00
41250;BME280;26984;59.928;30.306;2023-09-19T00:47:36;101542.41;;;9.05;100.00
41250;BME280;26984;59.928;30.306;2023-09-19T00:50:04;101547.22;;;9.10;100.00
41250;BME280;26984;59.928;30.306;2023-09-19T00:52:33;101544.19;;;9.13;100.00
41250;BME280;26984;59.928;30.306;2023-09-19T00:55:04;101543.25;;;9.06;100.00
41250;BME280;26984;59.928;30.306;2023-09-19T00:57:31;101540.00;;;8.96;100.00
41250;BME280;26984;59.928;30.306;2023-09-19T00:59:59;101536.47;;;8.95;100.00
41250;BME280;26984;59.928;30.306;2023-09-19T01:02:31;101533.78;;;8.95;100.00
41250;BME280;26984;59.928;30.306;2023-09-19T01:04:58;101521.66;;;8.99;100.00
41250;BME280;26984;59.928;30.306;2023-09-19T01:07:25;101523.34;;;9.00;100.00
41250;BME280;26984;59.928;30.306;2023-09-19T01:09:56;101511.72;;;8.85;100.00
41250;BME280;26984;59.928;30.306;2023-09-19T01:12:29;101502.25;;;8.89;100.00
41250;BME280;26984;59.928;30.306;2023-09-19T01:14:59;101500.59;;;8.88;100.00
41250;BME280;26984;59.928;30.306;2023-09-19T01:17:32;101494.84;;;8.76;100.00
41250;BME280;26984;59.928;30.306;2023-09-19T01:20:20;101486.13;;;8.74;100.00
41250;BME280;26984;59.928;30.306;2023-09-19T01:22:56;101484.84;;;8.70;100.00
41250;BME280;26984;59.928;30.306;2023-09-19T01:25:33;101470.47;;;8.78;100.00
41250;BME280;26984;59.928;30.306;2023-09-19T01:28:10;101468.72;;;8.70;100.00
41250;BME280;26984;59.928;30.306;2023-09-19T01:30:44;101459.94;;;8.76;100.00
41250;BME280;26984;59.928;30.306;2023-09-19T01:33:12;101460.66;;;8.70;100.00
41250;BME280;26984;59.928;30.306;2023-09-19T01:35:40;101451.22;;;8.74;100.00
41250;BME280;26984;59.928;30.306;2023-09-19T01:38:07;101457.13;;;8.70;100.00
41250;BME280;26984;59.928;30.306;2023-09-19T01:40:40;101453.16;;;8.66;100.00
41250;BME280;26984;59.928;30.306;2023-09-19T01:43:09;101453.63;;;8.54;100.00
41250;BME280;26984;59.928;30.306;2023-09-19T01:45:42;101449.44;;;8.52;100.00
41250;BME280;26984;59.928;30.306;2023-09-19T01:48:19;101439.88;;;8.49;100.00
41250;BME280;26984;59.928;30.306;2023-09-19T01:50:59;101437.13;;;8.57;100.00
41250;BME280;26984;59.928;30.306;2023-09-19T01:53:28;101429.72;;;8.59;100.00
41250;BME280;26984;59.928;30.306;2023-09-19T01:55:57;101421.19;;;8.56;100.00
41250;BME280;26984;59.928;30.306;2023-09-19T01:58:29;101418.03;;;8.67;100.00
41250;BME280;26984;59.928;30.306;2023-09-19T02:00:58;101413.97;;;8.71;100.00
41250;BME280;26984;59.928;30.306;2023-09-19T02:03:28;101405.84;;;8.79;100.00
41250;BME280;26984;59.928;30.306;2023-09-19T02:05:56;101412.38;;;8.92;100.00
41250;BME280;26984;59.928;30.306;2023-09-19T02:08:24;101412.38;;;8.92;100.00
41250;BME280;26984;59.928;30.306;2023-09-19T02:10:52;101407.75;;;8.85;100.00
41250;BME280;26984;59.928;30.306;2023-09-19T02:13:20;101394.53;;;8.84;100.00
41250;BME280;26984;59.928;30.306;2023-09-19T02:15:48;101390.53;;;8.80;100.00
41250;BME280;26984;59.928;30.306;2023-09-19T02:18:15;101392.94;;;8.75;100.00
41250;BME280;26984;59.928;30.306;2023-09-19T02:20:44;101379.50;;;8.75;100.00
41250;BME280;26984;59.928;30.306;2023-09-19T02:23:12;101372.94;;;8.77;100.00
41250;BME280;26984;59.928;30.306;2023-09-19T02:25:39;101374.31;;;8.73;100.00
41250;BME280;26984;59.928;30.306;2023-09-19T02:28:07;101355.72;;;8.72;100.00
41250;BME280;26984;59.928;30.306;2023-09-19T02:30:35;101345.59;;;8.74;100.00
41250;BME280;26984;59.928;30.306;2023-09-19T02:33:03;101347.25;;;8.75;100.00
41250;BME280;26984;59.928;30.306;2023-09-19T02:35:31;101346.91;;;8.78;100.00
41250;BME280;26984;59.928;30.306;2023-09-19T02:38:03;101334.28;;;8.78;100.00
41250;BME280;26984;59.928;30.306;2023-09-19T02:40:32;101337.44;;;8.82;100.00
41250;BME280;26984;59.928;30.306;2023-09-19T02:43:01;101329.47;;;8.88;100.00
41250;BME280;26984;59.928;30.306;2023-09-19T02:45:29;101316.59;;;8.84;100.00
41250;BME280;26984;59.928;30.306;2023-09-19T02:47:57;101324.19;;;8.80;100.00
41250;BME280;26984;59.928;30.306;2023-09-19T02:50:24;101314.38;;;8.87;100.00
41250;BME280;26984;59.928;30.306;2023-09-19T02:52:52;101309.19;;;8.86;100.00
41250;BME280;26984;59.928;30.306;2023-09-19T02:55:21;101307.97;;;8.88;100.00
41250;BME280;26984;59.928;30.306;2023-09-19T02:57:49;101304.72;;;8.93;100.00
41250;BME280;26984;59.928;30.306;2023-09-19T03:00:17;101294.16;;;8.92;100.00
41250;BME280;26984;59.928;30.306;2023-09-19T03:02:47;101285.34;;;8.98;100.00
41250;BME280;26984;59.928;30.306;2023-09-19T03:05:15;101289.09;;;9.03;100.00
41250;BME280;26984;59.928;30.306;2023-09-19T03:07:43;101277.59;;;9.09;100.00
41250;BME280;26984;59.928;30.306;2023-09-19T03:10:13;101286.84;;;9.22;100.00
41250;BME280;26984;59.928;30.306;2023-09-19T03:12:43;101281.72;;;9.27;100.00
41250;BME280;26984;59.928;30.306;2023-09-19T03:15:11;101277.00;;;9.29;100.00
41250;BME280;26984;59.928;30.306;2023-09-19T03:17:38;101269.81;;;9.36;100.00
41250;BME280;26984;59.928;30.306;2023-09-19T03:20:10;101265.88;;;9.39;100.00
41250;BME280;26984;59.928;30.306;2023-09-19T03:22:39;101256.66;;;9.48;100.00
41250;BME280;26984;59.928;30.306;2023-09-19T03:25:08;101267.50;;;9.54;100.00
41250;BME280;26984;59.928;30.306;2023-09-19T03:27:39;101268.31;;;9.55;100.00
41250;BME280;26984;59.928;30.306;2023-09-19T03:30:09;101258.22;;;9.57;100.00
41250;BME280;26984;59.928;30.306;2023-09-19T03:32:44;101244.75;;;9.57;100.00
41250;BME280;26984;59.928;30.306;2023-09-19T03:35:13;101238.34;;;9.58;100.00
41250;BME280;26984;59.928;30.306;2023-09-19T03:37:41;101228.34;;;9.52;100.00
41250;BME280;26984;59.928;30.306;2023-09-19T03:40:10;101219.25;;;9.53;100.00
41250;BME280;26984;59.928;30.306;2023-09-19T03:42:38;101220.28;;;9.52;100.00
41250;BME280;26984;59.928;30.306;2023-09-19T03:45:09;101213.69;;;9.54;100.00
41250;BME280;26984;59.928;30.306;2023-09-19T03:47:40;101210.78;;;9.56;100.00
41250;BME280;26984;59.928;30.306;2023-09-19T03:50:10;101204.19;;;9.58;100.00
41250;BME280;26984;59.928;30.306;2023-09-19T03:52:37;101200.31;;;9.61;100.00
41250;BME280;26984;59.928;30.306;2023-09-19T03:55:06;101197.00;;;9.66;100.00
41250;BME280;26984;59.928;30.306;2023-09-19T03:57:36;101190.59;;;9.67;100.00
41250;BME280;26984;59.928;30.306;2023-09-19T04:00:04;101181.09;;;9.71;100.00
41250;BME280;26984;59.928;30.306;2023-09-19T04:02:40;101173.25;;;9.69;100.00
41250;BME280;26984;59.928;30.306;2023-09-19T04:05:08;101171.38;;;9.70;100.00
41250;BME280;26984;59.928;30.306;2023-09-19T04:07:36;101165.38;;;9.74;100.00
41250;BME280;26984;59.928;30.306;2023-09-19T04:10:04;101153.41;;;9.77;100.00
41250;BME280;26984;59.928;30.306;2023-09-19T04:12:32;101145.97;;;9.79;100.00
41250;BME280;26984;59.928;30.306;2023-09-19T04:15:00;101153.66;;;9.82;100.00
41250;BME280;26984;59.928;30.306;2023-09-19T04:17:29;101142.47;;;9.85;100.00
41250;BME280;26984;59.928;30.306;2023-09-19T04:20:00;101131.97;;;9.90;100.00
41250;BME280;26984;59.928;30.306;2023-09-19T04:22:27;101129.50;;;9.95;100.00
41250;BME280;26984;59.928;30.306;2023-09-19T04:24:55;101131.38;;;10.01;100.00
41250;BME280;26984;59.928;30.306;2023-09-19T04:27:23;101120.84;;;10.00;100.00
41250;BME280;26984;59.928;30.306;2023-09-19T04:29:50;101105.06;;;9.97;100.00
41250;BME280;26984;59.928;30.306;2023-09-19T04:32:19;101103.63;;;9.94;100.00
41250;BME280;26984;59.928;30.306;2023-09-19T04:34:47;101096.19;;;9.96;100.00
41250;BME280;26984;59.928;30.306;2023-09-19T04:37:18;101088.28;;;9.95;100.00
41250;BME280;26984;59.928;30.306;2023-09-19T04:39:45;101085.41;;;10.03;100.00
41250;BME280;26984;59.928;30.306;2023-09-19T04:42:12;101085.41;;;10.03;100.00
41250;BME280;26984;59.928;30.306;2023-09-19T04:44:41;101074.63;;;10.03;100.00
41250;BME280;26984;59.928;30.306;2023-09-19T04:47:08;101075.28;;;10.05;100.00
41250;BME280;26984;59.928;30.306;2023-09-19T04:49:38;101070.50;;;10.00;100.00
41250;BME280;26984;59.928;30.306;2023-09-19T04:52:05;101072.38;;;10.06;100.00
41250;BME280;26984;59.928;30.306;2023-09-19T04:54:34;101086.06;;;10.05;100.00
41250;BME280;26984;59.928;30.306;2023-09-19T04:57:03;101076.94;;;10.06;100.00
41250;BME280;26984;59.928;30.306;2023-09-19T04:59:31;101077.38;;;10.16;100.00
41250;BME280;26984;59.928;30.306;2023-09-19T05:01:59;101076.38;;;10.24;100.00
41250;BME280;26984;59.928;30.306;2023-09-19T05:04:26;101068.75;;;10.34;100.00
41250;BME280;26984;59.928;30.306;2023-09-19T05:06:54;101064.44;;;10.40;100.00
41250;BME280;26984;59.928;30.306;2023-09-19T05:09:22;101056.16;;;10.48;100.00
41250;BME280;26984;59.928;30.306;2023-09-19T05:11:50;101053.06;;;10.51;100.00
41250;BME280;26984;59.928;30.306;2023-09-19T05:14:18;101044.97;;;10.58;100.00
41250;BME280;26984;59.928;30.306;2023-09-19T05:16:46;101042.47;;;10.63;100.00
41250;BME280;26984;59.928;30.306;2023-09-19T05:19:14;101035.03;;;10.65;100.00
41250;BME280;26984;59.928;30.306;2023-09-19T05:21:41;101031.53;;;10.71;100.00
41250;BME280;26984;59.928;30.306;2023-09-19T05:24:09;101026.53;;;10.74;100.00
41250;BME280;26984;59.928;30.306;2023-09-19T05:26:37;101026.75;;;10.79;100.00
41250;BME280;26984;59.928;30.306;2023-09-19T05:29:08;101021.13;;;10.88;100.00
41250;BME280;26984;59.928;30.306;2023-09-19T05:31:35;101019.88;;;10.90;100.00
41250;BME280;26984;59.928;30.306;2023-09-19T05:34:06;101018.25;;;10.96;100.00
41250;BME280;26984;59.928;30.306;2023-09-19T05:36:34;101009.28;;;10.95;100.00
41250;BME280;26984;59.928;30.306;2023-09-19T05:39:02;100996.69;;;10.89;100.00
41250;BME280;26984;59.928;30.306;2023-09-19T05:41:31;100996.03;;;10.87;100.00
41250;BME280;26984;59.928;30.306;2023-09-19T05:43:59;100985.88;;;10.96;100.00
41250;BME280;26984;59.928;30.306;2023-09-19T05:46:29;100973.00;;;11.05;100.00
41250;BME280;26984;59.928;30.306;2023-09-19T05:48:57;100976.25;;;11.20;100.00
41250;BME280;26984;59.928;30.306;2023-09-19T05:51:25;100970.44;;;11.30;100.00
41250;BME280;26984;59.928;30.306;2023-09-19T05:53:54;100972.88;;;11.38;100.00
41250;BME280;26984;59.928;30.306;2023-09-19T05:56:22;100962.69;;;11.53;100.00
41250;BME280;26984;59.928;30.306;2023-09-19T05:58:49;100964.72;;;11.58;100.00
41250;BME280;26984;59.928;30.306;2023-09-19T06:01:19;100962.81;;;11.65;100.00
41250;BME280;26984;59.928;30.306;2023-09-19T06:03:48;100967.78;;;11.68;100.00
41250;BME280;26984;59.928;30.306;2023-09-19T06:06:15;100952.59;;;11.73;100.00
41250;BME280;26984;59.928;30.306;2023-09-19T06:08:43;100960.44;;;11.82;100.00
41250;BME280;26984;59.928;30.306;2023-09-19T06:11:11;100953.38;;;11.87;100.00
41250;BME280;26984;59.928;30.306;2023-09-19T06:13:38;100948.34;;;11.97;100.00
41250;BME280;26984;59.928;30.306;2023-09-19T06:16:06;100949.97;;;11.98;100.00
41250;BME280;26984;59.928;30.306;2023-09-19T06:18:35;100946.38;;;12.11;100.00
41250;BME280;26984;59.928;30.306;2023-09-19T06:21:04;100940.22;;;12.29;100.00
41250;BME280;26984;59.928;30.306;2023-09-19T06:23:33;100942.13;;;12.47;100.00
41250;BME280;26984;59.928;30.306;2023-09-19T06:26:01;100938.44;;;12.66;100.00
41250;BME280;26984;59.928;30.306;2023-09-19T06:28:29;100932.13;;;12.91;100.00
41250;BME280;26984;59.928;30.306;2023-09-19T06:30:57;100930.28;;;13.10;100.00
41250;BME280;26984;59.928;30.306;2023-09-19T06:33:24;100924.44;;;13.31;100.00
41250;BME280;26984;59.928;30.306;2023-09-19T06:35:51;100917.59;;;13.59;100.00
41250;BME280;26984;59.928;30.306;2023-09-19T06:38:26;100915.25;;;13.81;100.00
41250;BME280;26984;59.928;30.306;2023-09-19T06:40:54;100910.47;;;13.95;100.00
41250;BME280;26984;59.928;30.306;2023-09-19T06:43:22;100908.13;;;14.10;100.00
41250;BME280;26984;59.928;30.306;2023-09-19T06:45:49;100915.81;;;14.25;100.00
41250;BME280;26984;59.928;30.306;2023-09-19T06:48:17;100901.44;;;14.48;100.00
41250;BME280;26984;59.928;30.306;2023-09-19T06:50:45;100898.38;;;14.44;100.00
41250;BME280;26984;59.928;30.306;2023-09-19T06:53:13;100903.00;;;14.67;100.00
41250;BME280;26984;59.928;30.306;2023-09-19T06:55:43;100886.25;;;14.82;100.00
41250;BME280;26984;59.928;30.306;2023-09-19T06:58:11;100878.91;;;14.94;100.00
41250;BME280;26984;59.928;30.306;2023-09-19T07:00:38;100878.53;;;15.02;100.00
41250;BME280;26984;59.928;30.306;2023-09-19T07:03:06;100875.69;;;15.09;100.00
41250;BME280;26984;59.928;30.306;2023-09-19T07:05:37;100866.69;;;15.20;100.00
41250;BME280;26984;59.928;30.306;2023-09-19T07:08:05;100864.41;;;15.29;100.00
41250;BME280;26984;59.928;30.306;2023-09-19T07:10:34;100865.91;;;15.37;100.00
41250;BME280;26984;59.928;30.306;2023-09-19T07:13:03;100856.47;;;15.39;100.00
41250;BME280;26984;59.928;30.306;2023-09-19T07:15:32;100860.25;;;15.38;100.00
41250;BME280;26984;59.928;30.306;2023-09-19T07:18:01;100855.16;;;15.42;100.00
41250;BME280;26984;59.928;30.306;2023-09-19T07:20:29;100856.50;;;15.56;100.00
41250;BME280;26984;59.928;30.306;2023-09-19T07:22:58;100856.66;;;15.78;100.00
41250;BME280;26984;59.928;30.306;2023-09-19T07:25:26;100864.81;;;15.95;100.00
41250;BME280;26984;59.928;30.306;2023-09-19T07:27:54;100860.81;;;15.97;100.00
41250;BME280;26984;59.928;30.306;2023-09-19T07:30:23;100861.34;;;15.83;100.00
41250;BME280;26984;59.928;30.306;2023-09-19T07:32:52;100845.03;;;15.66;100.00
41250;BME280;26984;59.928;30.306;2023-09-19T07:35:19;100851.50;;;15.65;100.00
41250;BME280;26984;59.928;30.306;2023-09-19T07:37:47;100856.38;;;15.63;100.00
41250;BME280;26984;59.928;30.306;2023-09-19T07:40:15;100841.09;;;15.73;100.00
41250;BME280;26984;59.928;30.306;2023-09-19T07:42:43;100832.88;;;15.85;100.00
41250;BME280;26984;59.928;30.306;2023-09-19T07:45:13;100827.44;;;15.85;100.00
41250;BME280;26984;59.928;30.306;2023-09-19T07:47:45;100828.84;;;15.88;100.00
41250;BME280;26984;59.928;30.306;2023-09-19T07:50:12;100816.81;;;16.00;100.00
41250;BME280;26984;59.928;30.306;2023-09-19T07:52:42;100816.78;;;16.17;100.00
41250;BME280;26984;59.928;30.306;2023-09-19T07:55:09;100812.09;;;16.30;100.00
41250;BME280;26984;59.928;30.306;2023-09-19T07:57:43;100801.28;;;16.35;100.00
41250;BME280;26984;59.928;30.306;2023-09-19T08:00:10;100801.66;;;16.43;100.00
41250;BME280;26984;59.928;30.306;2023-09-19T08:02:39;100792.91;;;16.58;100.00
41250;BME280;26984;59.928;30.306;2023-09-19T08:05:09;100789.31;;;16.74;100.00
41250;BME280;26984;59.928;30.306;2023-09-19T08:07:37;100785.09;;;16.84;100.00
41250;BME280;26984;59.928;30.306;2023-09-19T08:10:05;100782.00;;;16.97;100.00
41250;BME280;26984;59.928;30.306;2023-09-19T08:12:38;100774.44;;;17.04;100.00
41250;BME280;26984;59.928;30.306;2023-09-19T08:15:12;100775.06;;;17.11;100.00
41250;BME280;26984;59.928;30.306;2023-09-19T08:17:39;100785.97;;;17.11;100.00
41250;BME280;26984;59.928;30.306;2023-09-19T08:20:09;100781.88;;;17.14;100.00
41250;BME280;26984;59.928;30.306;2023-09-19T08:22:46;100774.63;;;17.24;100.00
41250;BME280;26984;59.928;30.306;2023-09-19T08:25:15;100775.63;;;17.40;100.00
41250;BME280;26984;59.928;30.306;2023-09-19T08:27:44;100772.41;;;17.48;100.00
41250;BME280;26984;59.928;30.306;2023-09-19T08:30:14;100779.06;;;17.58;100.00
41250;BME280;26984;59.928;30.306;2023-09-19T08:32:42;100777.69;;;17.60;100.00
41250;BME280;26984;59.928;30.306;2023-09-19T08:35:11;100764.88;;;17.61;100.00
41250;BME280;26984;59.928;30.306;2023-09-19T08:37:38;100764.94;;;17.66;100.00
41250;BME280;26984;59.928;30.306;2023-09-19T08:40:06;100752.47;;;17.75;100.00
41250;BME280;26984;59.928;30.306;2023-09-19T08:42:48;100750.16;;;17.89;99.43
41250;BME280;26984;59.928;30.306;2023-09-19T08:45:16;100750.28;;;18.09;99.12
41250;BME280;26984;59.928;30.306;2023-09-19T08:47:45;100743.91;;;18.36;98.50
41250;BME280;26984;59.928;30.306;2023-09-19T08:50:17;100723.34;;;18.76;96.49
41250;BME280;26984;59.928;30.306;2023-09-19T08:52:46;100721.25;;;19.19;93.99
41250;BME280;26984;59.928;30.306;2023-09-19T08:55:14;100715.28;;;19.63;91.87
41250;BME280;26984;59.928;30.306;2023-09-19T08:57:46;100715.22;;;20.03;88.00
41250;BME280;26984;59.928;30.306;2023-09-19T09:00:16;100705.31;;;20.23;87.18
41250;BME280;26984;59.928;30.306;2023-09-19T09:02:46;100694.59;;;20.37;87.03
41250;BME280;26984;59.928;30.306;2023-09-19T09:05:16;100696.19;;;20.53;85.07
41250;BME280;26984;59.928;30.306;2023-09-19T09:07:49;100681.91;;;20.56;84.46
41250;BME280;26984;59.928;30.306;2023-09-19T09:10:17;100675.06;;;20.64;85.81
41250;BME280;26984;59.928;30.306;2023-09-19T09:12:48;100678.06;;;20.62;84.72
41250;BME280;26984;59.928;30.306;2023-09-19T09:15:16;100665.44;;;20.66;85.67
41250;BME280;26984;59.928;30.306;2023-09-19T09:17:46;100654.19;;;20.73;85.12
41250;BME280;26984;59.928;30.306;2023-09-19T09:20:14;100658.81;;;20.77;85.31
41250;BME280;26984;59.928;30.306;2023-09-19T09:22:49;100644.06;;;20.73;84.89
41250;BME280;26984;59.928;30.306;2023-09-19T09:25:17;100641.66;;;20.62;85.85
41250;BME280;26984;59.928;30.306;2023-09-19T09:27:45;100637.59;;;20.49;86.96
41250;BME280;26984;59.928;30.306;2023-09-19T09:30:22;100630.25;;;20.44;87.51
41250;BME280;26984;59.928;30.306;2023-09-19T09:33:09;100632.22;;;20.39;88.38
41250;BME280;26984;59.928;30.306;2023-09-19T09:35:38;100622.13;;;20.29;89.64
41250;BME280;26984;59.928;30.306;2023-09-19T09:38:15;100618.56;;;20.28;90.42
41250;BME280;26984;59.928;30.306;2023-09-19T09:40:47;100610.06;;;20.35;90.69
41250;BME280;26984;59.928;30.306;2023-09-19T09:43:26;100601.00;;;20.40;91.11
41250;BME280;26984;59.928;30.306;2023-09-19T09:46:07;100603.97;;;20.53;90.86
41250;BME280;26984;59.928;30.306;2023-09-19T09:48:56;100608.00;;;20.61;90.68
41250;BME280;26984;59.928;30.306;2023-09-19T09:51:41;100605.78;;;20.68;91.26
41250;BME280;26984;59.928;30.306;2023-09-19T09:54:13;100614.50;;;20.75;91.32
41250;BME280;26984;59.928;30.306;2023-09-19T09:59:45;100593.84;;;20.88;91.29
41250;BME280;26984;59.928;30.306;2023-09-19T10:02:13;100599.28;;;20.93;91.40
41250;BME280;26984;59.928;30.306;2023-09-19T10:04:43;100588.53;;;21.02;91.78
41250;BME280;26984;59.928;30.306;2023-09-19T10:07:27;100587.59;;;21.17;90.46
41250;BME280;26984;59.928;30.306;2023-09-19T10:10:06;100576.34;;;21.18;90.74
41250;BME280;26984;59.928;30.306;2023-09-19T10:12:45;100568.94;;;21.19;91.39
41250;BME280;26984;59.928;30.306;2023-09-19T10:15:14;100581.28;;;21.16;91.83
41250;BME280;26984;59.928;30.306;2023-09-19T10:17:43;100568.59;;;21.25;91.33
41250;BME280;26984;59.928;30.306;2023-09-19T10:20:12;100573.78;;;21.27;91.91
41250;BME280;26984;59.928;30.306;2023-09-19T10:22:59;100559.78;;;21.34;91.55
41250;BME280;26984;59.928;30.306;2023-09-19T10:25:29;100558.09;;;21.38;91.52
41250;BME280;26984;59.928;30.306;2023-09-19T10:27:57;100552.50;;;21.48;91.71
41250;BME280;26984;59.928;30.306;2023-09-19T10:30:29;100549.88;;;21.62;92.04
41250;BME280;26984;59.928;30.306;2023-09-19T10:33:00;100543.38;;;21.76;91.84
41250;BME280;26984;59.928;30.306;2023-09-19T10:35:28;100537.50;;;21.88;91.37
41250;BME280;26984;59.928;30.306;2023-09-19T10:37:57;100531.03;;;21.98;90.68
41250;BME280;26984;59.928;30.306;2023-09-19T10:40:25;100530.69;;;22.05;90.96
41250;BME280;26984;59.928;30.306;2023-09-19T10:43:02;100519.59;;;22.15;90.39
41250;BME280;26984;59.928;30.306;2023-09-19T10:45:32;100509.38;;;22.20;90.22
41250;BME280;26984;59.928;30.306;2023-09-19T10:48:00;100513.44;;;22.23;90.49
41250;BME280;26984;59.928;30.306;2023-09-19T10:50:30;100499.06;;;22.31;90.24
41250;BME280;26984;59.928;30.306;2023-09-19T10:52:59;100500.09;;;22.35;90.22
41250;BME280;26984;59.928;30.306;2023-09-19T10:55:30;100490.75;;;22.36;90.97
41250;BME280;26984;59.928;30.306;2023-09-19T10:57:58;100502.00;;;22.54;90.53
41250;BME280;26984;59.928;30.306;2023-09-19T11:00:52;100490.47;;;22.70;89.49
41250;BME280;26984;59.928;30.306;2023-09-19T11:03:20;100485.69;;;22.76;89.62
41250;BME280;26984;59.928;30.306;2023-09-19T11:06:05;100482.53;;;22.83;88.94
41250;BME280;26984;59.928;30.306;2023-09-19T11:08:51;100463.50;;;22.73;89.31
41250;BME280;26984;59.928;30.306;2023-09-19T11:11:39;100476.59;;;22.94;89.26
41250;BME280;26984;59.928;30.306;2023-09-19T11:14:28;100469.69;;;23.11;88.31
41250;BME280;26984;59.928;30.306;2023-09-19T11:22:35;100464.91;;;23.72;84.55
41250;BME280;26984;59.928;30.306;2023-09-19T11:28:35;100472.13;;;23.81;84.66
41250;BME280;26984;59.928;30.306;2023-09-19T11:33:50;100468.94;;;24.02;83.33
41250;BME280;26984;59.928;30.306;2023-09-19T11:36:37;100458.94;;;24.06;82.69
41250;BME280;26984;59.928;30.306;2023-09-19T11:39:06;100455.19;;;24.02;81.71
41250;BME280;26984;59.928;30.306;2023-09-19T11:41:52;100439.56;;;23.75;82.42
41250;BME280;26984;59.928;30.306;2023-09-19T11:47:08;100440.56;;;23.65;83.88
41250;BME280;26984;59.928;30.306;2023-09-19T11:49:38;100437.75;;;23.70;83.07
41250;BME280;26984;59.928;30.306;2023-09-19T11:52:08;100437.13;;;23.73;83.26
41250;BME280;26984;59.928;30.306;2023-09-19T11:54:38;100443.09;;;23.75;83.53
41250;BME280;26984;59.928;30.306;2023-09-19T11:57:07;100432.09;;;23.75;83.14
41250;BME280;26984;59.928;30.306;2023-09-19T11:59:38;100430.38;;;23.79;82.82
41250;BME280;26984;59.928;30.306;2023-09-19T12:02:05;100441.69;;;23.64;83.70
41250;BME280;26984;59.928;30.306;2023-09-19T12:04:34;100437.41;;;23.58;84.53
41250;BME280;26984;59.928;30.306;2023-09-19T12:07:07;100428.88;;;23.59;84.77
41250;BME280;26984;59.928;30.306;2023-09-19T12:09:40;100429.88;;;23.63;84.65
41250;BME280;26984;59.928;30.306;2023-09-19T12:12:10;100428.16;;;23.68;84.81
41250;BME280;26984;59.928;30.306;2023-09-19T12:14:40;100419.69;;;23.64;84.24
41250;BME280;26984;59.928;30.306;2023-09-19T12:17:09;100418.69;;;23.60;84.58
41250;BME280;26984;59.928;30.306;2023-09-19T12:19:39;100410.09;;;23.61;84.64
41250;BME280;26984;59.928;30.306;2023-09-19T12:22:06;100411.66;;;23.68;84.60
41250;BME280;26984;59.928;30.306;2023-09-19T12:24:35;100406.88;;;23.73;83.90
41250;BME280;26984;59.928;30.306;2023-09-19T12:27:06;100406.97;;;23.68;83.87
41250;BME280;26984;59.928;30.306;2023-09-19T12:29:42;100403.50;;;23.62;84.25
41250;BME280;26984;59.928;30.306;2023-09-19T12:32:10;100400.97;;;23.52;84.45
41250;BME280;26984;59.928;30.306;2023-09-19T12:34:37;100400.59;;;23.45;84.52
41250;BME280;26984;59.928;30.306;2023-09-19T12:37:08;100395.50;;;23.25;85.25
41250;BME280;26984;59.928;30.306;2023-09-19T12:39:42;100391.84;;;23.15;85.92
41250;BME280;26984;59.928;30.306;2023-09-19T12:42:11;100394.50;;;23.21;86.00
41250;BME280;26984;59.928;30.306;2023-09-19T12:44:40;100375.06;;;23.17;86.29
41250;BME280;26984;59.928;30.306;2023-09-19T12:47:12;100381.56;;;23.21;86.19
41250;BME280;26984;59.928;30.306;2023-09-19T12:52:33;100382.69;;;23.20;86.55
41250;BME280;26984;59.928;30.306;2023-09-19T12:55:01;100372.19;;;23.22;87.04
41250;BME280;26984;59.928;30.306;2023-09-19T12:57:32;100367.50;;;23.23;87.37
41250;BME280;26984;59.928;30.306;2023-09-19T13:00:00;100356.72;;;23.26;86.81
41250;BME280;26984;59.928;30.306;2023-09-19T13:02:28;100350.00;;;23.18;87.50
41250;BME280;26984;59.928;30.306;2023-09-19T13:04:56;100344.53;;;23.18;87.16
41250;BME280;26984;59.928;30.306;2023-09-19T13:07:39;100335.47;;;23.18;87.65
41250;BME280;26984;59.928;30.306;2023-09-19T13:10:09;100339.34;;;23.17;88.08
41250;BME280;26984;59.928;30.306;2023-09-19T13:12:38;100337.28;;;23.23;87.44